createdAt,value
2018-12-31T00:01:09.118Z,2.70
2018-12-31T00:03:37.957Z,2.80
2018-12-31T00:08:36.808Z,3.00
2018-12-31T00:11:05.908Z,2.90
2018-12-31T00:18:32.842Z,3.00
2018-12-31T00:28:28.498Z,3.10
2018-12-31T00:35:55.043Z,3.00
2018-12-31T00:40:53.173Z,3.10
2018-12-31T00:43:22.470Z,3.20
2018-12-31T00:45:51.625Z,3.10
2018-12-31T00:53:18.441Z,3.60
2018-12-31T00:58:17.675Z,3.60
2018-12-31T01:00:46.780Z,3.30
2018-12-31T01:05:44.812Z,3.30
2018-12-31T01:08:14.374Z,3.20
2018-12-31T01:10:44.199Z,3.30
2018-12-31T01:13:13.275Z,3.20
2018-12-31T01:18:11.087Z,3.40
2018-12-31T01:20:40.579Z,3.50
2018-12-31T01:23:09.746Z,3.60
2018-12-31T01:30:36.884Z,3.30
2018-12-31T01:33:05.825Z,3.20
2018-12-31T01:40:32.450Z,3.30
2018-12-31T01:43:01.558Z,3.30
2018-12-31T01:47:59.501Z,3.30
2018-12-31T01:50:28.571Z,3.20
2018-12-31T01:57:55.550Z,3.30
2018-12-31T02:00:24.540Z,3.50
2018-12-31T02:07:51.139Z,3.20
2018-12-31T02:10:20.504Z,3.40
2018-12-31T02:17:47.592Z,3.20
2018-12-31T02:25:14.665Z,3.50
2018-12-31T02:30:13.347Z,3.60
2018-12-31T02:32:42.375Z,3.60
2018-12-31T02:35:11.545Z,3.70
2018-12-31T02:40:09.590Z,3.70
2018-12-31T02:42:38.724Z,3.50
2018-12-31T02:47:36.501Z,3.00
2018-12-31T02:52:34.673Z,2.60
2018-12-31T02:57:33.713Z,2.90
2018-12-31T03:02:32.574Z,2.50
2018-12-31T03:09:59.707Z,3.00
2018-12-31T03:12:28.943Z,3.40
2018-12-31T03:17:26.707Z,3.40
2018-12-31T03:19:55.776Z,3.10
2018-12-31T03:22:24.987Z,3.10
2018-12-31T03:27:22.820Z,3.10
2018-12-31T03:29:52.044Z,2.70
2018-12-31T03:37:18.859Z,2.80
2018-12-31T03:39:47.686Z,2.60
2018-12-31T03:42:17.003Z,2.90
2018-12-31T03:47:14.742Z,2.50
2018-12-31T03:57:10.551Z,2.50
2018-12-31T03:59:39.955Z,2.50
2018-12-31T04:02:10.214Z,2.90
2018-12-31T04:04:39.213Z,2.50
2018-12-31T04:12:06.291Z,2.00
2018-12-31T04:17:04.203Z,2.60
2018-12-31T04:19:33.543Z,2.00
2018-12-31T04:22:02.647Z,2.10
2018-12-31T04:29:29.536Z,2.20
2018-12-31T04:34:27.620Z,2.10
2018-12-31T04:36:56.811Z,2.20
2018-12-31T04:39:25.905Z,2.30
2018-12-31T04:44:23.781Z,2.40
2018-12-31T04:46:52.763Z,2.10
2018-12-31T04:54:19.234Z,2.90
2018-12-31T04:56:48.610Z,2.20
2018-12-31T05:04:15.482Z,3.00
2018-12-31T05:06:44.667Z,3.10
2018-12-31T05:11:42.777Z,2.80
2018-12-31T05:14:11.818Z,2.90
2018-12-31T05:19:09.773Z,2.60
2018-12-31T05:21:38.857Z,2.50
2018-12-31T05:24:07.821Z,2.60
2018-12-31T05:29:05.743Z,2.80
2018-12-31T05:31:34.858Z,2.60
2018-12-31T05:34:04.039Z,2.80
2018-12-31T05:44:01.528Z,2.90
2018-12-31T05:46:30.603Z,2.70
2018-12-31T05:51:30.478Z,2.90
2018-12-31T05:53:59.884Z,2.80
2018-12-31T05:56:29.169Z,2.80
2018-12-31T06:01:28.363Z,2.90
2018-12-31T06:08:55.638Z,2.90
2018-12-31T06:11:24.889Z,2.80
2018-12-31T06:13:54.140Z,2.80
2018-12-31T06:16:23.258Z,2.80
2018-12-31T06:18:52.490Z,2.90
2018-12-31T06:21:21.550Z,2.90
2018-12-31T06:23:50.621Z,2.80
2018-12-31T06:26:19.695Z,3.30
2018-12-31T06:31:17.523Z,3.50
2018-12-31T06:36:15.422Z,3.10
2018-12-31T06:41:13.554Z,3.00
2018-12-31T06:43:42.497Z,3.40
2018-12-31T06:53:38.205Z,3.50
2018-12-31T07:11:01.120Z,3.80
2018-12-31T07:18:28.467Z,3.80
2018-12-31T07:20:57.447Z,3.60
2018-12-31T07:25:55.451Z,3.70
2018-12-31T07:28:24.660Z,3.50
2018-12-31T07:30:54.040Z,3.70
2018-12-31T07:33:23.305Z,3.60
2018-12-31T07:35:52.320Z,3.80
2018-12-31T07:40:50.291Z,3.80
2018-12-31T07:45:48.048Z,3.90
2018-12-31T07:50:46.183Z,4.10
2018-12-31T07:53:15.259Z,4.40
2018-12-31T08:00:42.400Z,4.70
2018-12-31T08:05:40.463Z,4.80
2018-12-31T08:08:09.623Z,4.80
2018-12-31T08:10:38.556Z,5.10
2018-12-31T08:13:07.393Z,4.90
2018-12-31T08:18:05.380Z,5.40
2018-12-31T08:20:34.410Z,5.50
2018-12-31T08:23:03.650Z,5.70
2018-12-31T08:25:32.557Z,5.60
2018-12-31T08:28:01.508Z,5.80
2018-12-31T08:30:30.493Z,5.70
2018-12-31T08:37:57.004Z,6.20
2018-12-31T08:40:26.184Z,6.30
2018-12-31T08:42:55.471Z,6.40
2018-12-31T08:45:24.716Z,6.60
2018-12-31T08:47:54.040Z,6.60
2018-12-31T08:50:23.190Z,6.90
2018-12-31T08:52:52.435Z,6.70
2018-12-31T08:55:21.433Z,6.70
2018-12-31T09:00:19.520Z,7.00
2018-12-31T09:05:17.686Z,7.10
2018-12-31T09:07:46.744Z,7.40
2018-12-31T09:10:15.625Z,7.20
2018-12-31T09:12:44.685Z,7.30
2018-12-31T09:17:43.882Z,7.70
2018-12-31T09:20:12.896Z,7.70
2018-12-31T09:22:41.912Z,7.60
2018-12-31T09:25:11.116Z,7.70
2018-12-31T09:27:40.163Z,7.90
2018-12-31T09:30:09.247Z,7.90
2018-12-31T09:32:38.065Z,7.70
2018-12-31T09:35:07.119Z,7.80
2018-12-31T09:37:36.156Z,7.90
2018-12-31T09:40:04.975Z,7.90
2018-12-31T09:42:35.034Z,8.10
2018-12-31T09:45:04.438Z,8.00
2018-12-31T09:47:33.896Z,7.90
2018-12-31T09:50:03.444Z,8.40
2018-12-31T09:52:32.555Z,8.40
2018-12-31T09:55:01.954Z,8.60
2018-12-31T09:57:32.187Z,8.40
2018-12-31T10:00:03.972Z,8.60
2018-12-31T10:05:02.791Z,8.50
2018-12-31T10:07:31.978Z,8.60
2018-12-31T10:10:01.051Z,9.00
2018-12-31T10:12:31.469Z,8.90
2018-12-31T10:15:01.848Z,9.30
2018-12-31T10:17:31.083Z,9.10
2018-12-31T10:20:00.158Z,8.80
2018-12-31T10:22:29.036Z,8.90
2018-12-31T10:24:57.914Z,8.70
2018-12-31T10:29:55.975Z,8.80
2018-12-31T10:32:25.118Z,9.20
2018-12-31T10:34:54.110Z,9.50
2018-12-31T10:37:23.162Z,9.60
2018-12-31T10:39:52.240Z,9.60
2018-12-31T10:42:21.685Z,10.10
2018-12-31T10:44:51.781Z,10.20
2018-12-31T10:47:21.152Z,10.70
2018-12-31T10:49:51.229Z,10.60
2018-12-31T10:52:20.955Z,10.60
2018-12-31T10:54:50.963Z,10.30
2018-12-31T10:57:21.340Z,10.60
2018-12-31T10:59:51.108Z,10.70
2018-12-31T11:02:23.252Z,10.50
2018-12-31T11:04:53.002Z,10.80
2018-12-31T11:07:22.831Z,11.10
2018-12-31T11:09:51.853Z,11.00
2018-12-31T11:12:21.221Z,10.90
2018-12-31T11:14:50.587Z,11.00
2018-12-31T11:17:19.918Z,11.00
2018-12-31T11:19:49.094Z,11.00
2018-12-31T11:22:18.125Z,10.70
2018-12-31T11:24:47.055Z,10.60
2018-12-31T11:27:16.371Z,10.50
2018-12-31T11:29:45.398Z,10.60
2018-12-31T11:32:14.495Z,10.70
2018-12-31T11:34:43.403Z,11.00
2018-12-31T11:37:12.438Z,11.30
2018-12-31T11:39:41.558Z,11.60
2018-12-31T11:42:10.515Z,12.00
2018-12-31T11:44:39.673Z,12.40
2018-12-31T11:47:09.035Z,12.00
2018-12-31T11:49:38.531Z,12.00
2018-12-31T11:52:07.727Z,12.10
2018-12-31T11:54:36.970Z,12.30
2018-12-31T11:57:06.135Z,12.30
2018-12-31T11:59:35.161Z,12.20
2018-12-31T12:02:04.463Z,12.60
2018-12-31T12:04:33.397Z,12.50
2018-12-31T12:07:02.594Z,12.30
2018-12-31T12:09:31.473Z,12.50
2018-12-31T12:12:00.659Z,12.40
2018-12-31T12:14:30.482Z,12.70
2018-12-31T12:17:01.084Z,12.70
2018-12-31T12:19:31.111Z,12.70
2018-12-31T12:22:01.010Z,12.70
2018-12-31T12:24:30.875Z,12.80
2018-12-31T12:27:01.365Z,13.50
2018-12-31T12:29:31.614Z,13.60
2018-12-31T12:32:01.864Z,13.30
2018-12-31T12:34:31.804Z,12.70
2018-12-31T12:37:00.833Z,12.80
2018-12-31T12:39:30.134Z,13.60
2018-12-31T12:41:59.942Z,13.10
2018-12-31T12:44:32.849Z,12.50
2018-12-31T12:47:02.372Z,12.30
2018-12-31T12:49:31.535Z,12.50
2018-12-31T12:52:01.196Z,12.80
2018-12-31T12:54:30.455Z,13.20
2018-12-31T12:56:59.508Z,13.30
2018-12-31T12:59:28.638Z,12.90
2018-12-31T13:01:58.119Z,13.20
2018-12-31T13:04:28.474Z,13.30
2018-12-31T13:06:59.891Z,13.70
2018-12-31T13:09:29.433Z,13.90
2018-12-31T13:11:58.863Z,14.10
2018-12-31T13:14:28.327Z,14.90
2018-12-31T13:16:57.329Z,14.70
2018-12-31T13:19:26.643Z,14.30
2018-12-31T13:21:55.938Z,14.40
2018-12-31T13:24:25.157Z,14.60
2018-12-31T13:26:54.543Z,13.70
2018-12-31T13:29:23.843Z,14.00
2018-12-31T13:31:52.728Z,13.30
2018-12-31T13:34:21.933Z,14.20
2018-12-31T13:36:50.960Z,14.20
2018-12-31T13:39:19.888Z,14.50
2018-12-31T13:41:49.293Z,14.40
2018-12-31T13:44:19.126Z,14.80
2018-12-31T13:46:49.040Z,14.70
2018-12-31T13:49:18.924Z,14.60
2018-12-31T13:51:48.249Z,14.30
2018-12-31T13:54:17.540Z,14.30
2018-12-31T13:56:47.742Z,14.30
2018-12-31T13:59:17.327Z,13.80
2018-12-31T14:01:47.427Z,14.50
2018-12-31T14:04:17.271Z,14.60
2018-12-31T14:06:47.479Z,14.00
2018-12-31T14:09:17.224Z,13.70
2018-12-31T14:11:47.005Z,14.10
2018-12-31T14:14:17.099Z,14.20
2018-12-31T14:16:46.681Z,14.70
2018-12-31T14:19:16.573Z,14.20
2018-12-31T14:21:46.779Z,14.90
2018-12-31T14:24:17.721Z,14.40
2018-12-31T14:26:47.572Z,13.60
2018-12-31T14:29:17.433Z,14.50
2018-12-31T14:31:47.236Z,14.10
2018-12-31T14:34:17.542Z,13.50
2018-12-31T14:36:46.798Z,14.30
2018-12-31T14:39:17.123Z,14.00
2018-12-31T14:41:47.761Z,13.40
2018-12-31T14:44:17.693Z,13.60
2018-12-31T14:46:48.646Z,13.40
2018-12-31T14:49:19.005Z,12.50
2018-12-31T14:51:49.146Z,12.60
2018-12-31T14:54:18.482Z,13.00
2018-12-31T14:56:48.576Z,12.80
2018-12-31T14:59:18.023Z,12.60
2018-12-31T15:01:46.799Z,12.20
2018-12-31T15:04:15.766Z,12.20
2018-12-31T15:06:46.028Z,12.00
2018-12-31T15:09:15.147Z,11.80
2018-12-31T15:11:44.318Z,11.70
2018-12-31T15:14:13.348Z,11.70
2018-12-31T15:16:42.420Z,11.40
2018-12-31T15:19:11.307Z,11.20
2018-12-31T15:21:40.407Z,11.20
2018-12-31T15:24:09.592Z,11.20
2018-12-31T15:26:38.944Z,10.70
2018-12-31T15:29:08.651Z,10.40
2018-12-31T15:31:39.572Z,10.10
2018-12-31T15:34:08.945Z,9.90
2018-12-31T15:36:41.791Z,10.00
2018-12-31T15:39:12.559Z,9.70
2018-12-31T15:41:42.445Z,9.60
2018-12-31T15:44:11.894Z,9.30
2018-12-31T15:49:12.635Z,8.90
2018-12-31T15:51:42.547Z,8.90
2018-12-31T15:54:12.181Z,8.80
2018-12-31T15:56:42.412Z,8.90
2018-12-31T15:59:12.775Z,8.80
2018-12-31T16:01:43.062Z,8.90
2018-12-31T16:04:13.749Z,8.90
2018-12-31T16:09:13.514Z,8.40
2018-12-31T16:11:43.166Z,8.60
2018-12-31T16:16:42.813Z,8.80
2018-12-31T16:21:42.893Z,8.20
2018-12-31T16:24:12.877Z,8.20
2018-12-31T16:26:42.524Z,8.20
2018-12-31T16:29:12.288Z,8.20
2018-12-31T16:31:42.224Z,8.10
2018-12-31T16:34:12.329Z,7.70
2018-12-31T16:39:10.529Z,7.70
2018-12-31T16:41:39.642Z,7.90
2018-12-31T16:46:38.015Z,7.80
2018-12-31T16:49:06.957Z,7.70
2018-12-31T16:54:06.480Z,7.90
2018-12-31T16:59:06.508Z,7.50
2018-12-31T17:01:35.769Z,7.70
2018-12-31T17:04:04.850Z,7.80
2018-12-31T17:06:33.943Z,7.60
2018-12-31T17:09:05.973Z,7.50
2018-12-31T17:11:35.532Z,7.70
2018-12-31T17:14:04.360Z,7.40
2018-12-31T17:16:33.389Z,7.40
2018-12-31T17:19:02.388Z,7.40
2018-12-31T17:21:31.575Z,6.90
2018-12-31T17:24:00.919Z,7.20
2018-12-31T17:26:29.724Z,7.20
2018-12-31T17:28:58.800Z,7.20
2018-12-31T17:31:27.850Z,7.10
2018-12-31T17:33:56.962Z,6.70
2018-12-31T17:36:27.517Z,6.90
2018-12-31T17:41:25.279Z,6.60
2018-12-31T17:46:23.937Z,6.60
2018-12-31T17:48:53.539Z,6.60
2018-12-31T17:51:23.520Z,6.40
2018-12-31T17:53:52.779Z,6.50
2018-12-31T17:56:23.614Z,6.60
2018-12-31T17:59:47.834Z,6.40
2018-12-31T18:02:17.013Z,6.20
2018-12-31T18:04:46.508Z,6.30
2018-12-31T18:09:44.540Z,6.30
2018-12-31T18:12:13.800Z,6.40
2018-12-31T18:14:42.940Z,6.40
2018-12-31T18:17:11.871Z,6.20
2018-12-31T18:19:41.208Z,6.40
2018-12-31T18:22:10.110Z,6.30
2018-12-31T18:24:39.227Z,6.40
2018-12-31T18:27:08.508Z,6.50
2018-12-31T18:29:37.774Z,6.40
2018-12-31T18:42:02.876Z,6.10
2018-12-31T18:44:32.300Z,6.00
2018-12-31T18:52:15.563Z,6.00
2018-12-31T18:57:14.122Z,6.10
2018-12-31T18:59:43.930Z,6.00
2018-12-31T19:02:12.885Z,5.90
2018-12-31T19:07:24.700Z,6.00
2018-12-31T19:09:54.774Z,6.10
2018-12-31T19:14:53.118Z,6.10
2018-12-31T19:17:22.459Z,6.10
2018-12-31T19:22:20.826Z,6.00
2018-12-31T19:24:49.689Z,6.10
2018-12-31T19:29:48.277Z,6.20
2018-12-31T19:34:48.542Z,6.10
2018-12-31T19:37:17.886Z,5.80
2018-12-31T19:39:46.708Z,6.00
2018-12-31T19:42:15.834Z,5.80
2018-12-31T19:44:44.777Z,6.00
2018-12-31T19:47:13.853Z,6.00
2018-12-31T19:49:42.926Z,5.80
2018-12-31T19:59:39.001Z,5.80
2018-12-31T20:04:37.394Z,5.70
2018-12-31T20:07:06.194Z,5.70
2018-12-31T20:29:27.945Z,5.50
2018-12-31T20:31:57.212Z,5.00
2018-12-31T20:39:23.568Z,4.90
2018-12-31T20:41:52.665Z,5.10
2018-12-31T20:46:50.798Z,5.70
2018-12-31T20:49:20.153Z,6.00
2018-12-31T20:51:49.150Z,5.90
2018-12-31T20:54:18.334Z,6.10
2018-12-31T20:56:47.452Z,6.00
2018-12-31T20:59:16.629Z,5.90
2018-12-31T21:01:45.756Z,5.80
2018-12-31T21:04:15.171Z,5.80
2018-12-31T21:06:44.099Z,6.00
2018-12-31T21:09:13.302Z,5.70
2018-12-31T21:11:43.542Z,5.90
2018-12-31T21:14:12.596Z,5.90
2018-12-31T21:16:41.748Z,5.70
2018-12-31T21:19:10.717Z,5.90
2018-12-31T21:24:08.837Z,5.30
2018-12-31T21:26:37.813Z,5.20
2018-12-31T21:31:35.684Z,5.30
2018-12-31T21:34:04.743Z,5.50
2018-12-31T21:36:34.097Z,5.90
2018-12-31T21:41:33.309Z,5.60
2018-12-31T21:46:31.283Z,5.90
2018-12-31T21:49:00.885Z,5.90
2018-12-31T21:56:27.745Z,5.30
2018-12-31T21:58:56.999Z,5.40
2018-12-31T22:01:26.020Z,5.30
2018-12-31T22:03:55.985Z,5.20
2018-12-31T22:11:22.531Z,5.40
2018-12-31T22:13:51.449Z,5.40
2018-12-31T22:16:20.375Z,5.30
2018-12-31T22:21:18.186Z,5.40
2018-12-31T22:26:16.169Z,5.50
2018-12-31T22:31:14.274Z,5.00
2018-12-31T22:36:12.362Z,5.10
2018-12-31T22:38:41.630Z,5.00
2018-12-31T22:41:11.167Z,5.50
2018-12-31T22:43:40.705Z,5.60
2018-12-31T22:46:09.728Z,5.70
2018-12-31T22:48:38.702Z,5.40
2018-12-31T22:51:07.828Z,5.40
2018-12-31T22:53:37.081Z,5.10
2018-12-31T22:56:06.627Z,5.40
2018-12-31T22:58:35.906Z,5.00
2018-12-31T23:01:05.320Z,4.90
2018-12-31T23:03:35.866Z,5.10
2018-12-31T23:06:04.908Z,5.20
2018-12-31T23:08:34.153Z,5.30
2018-12-31T23:11:02.895Z,5.50
2018-12-31T23:13:35.568Z,5.50
2018-12-31T23:18:34.034Z,5.90
2018-12-31T23:21:03.198Z,5.70
2018-12-31T23:23:32.513Z,6.00
2018-12-31T23:26:01.729Z,6.10
2018-12-31T23:31:01.450Z,5.80
2018-12-31T23:33:30.510Z,5.80
2018-12-31T23:35:59.619Z,6.20
2018-12-31T23:38:29.042Z,6.10
2018-12-31T23:40:58.246Z,5.50
2018-12-31T23:43:27.529Z,5.60
2018-12-31T23:45:56.818Z,5.80
2018-12-31T23:48:25.899Z,6.00
2018-12-31T23:50:55.153Z,5.90
2018-12-31T23:53:24.118Z,5.80
2018-12-31T23:58:22.082Z,6.10
